Aérodrome :
LOGIN :

S'inscrire | Disclaimer

   EN    FR    IT 

 










Légende :    VFR   VFR Marginal   IFR   IFR Intensif   IFR Très Intensif
Visi : 
Plafond : 
>= 8 km
>= 3000ft
5 à 8 km
1000 à 3000 ft
1500m à 5 km
500 à 1000 ft
800 à 1500m
200 à 500 ft
< 800m
< 200 ft
Symboles :   Orages  Brouillard  Fortes neiges  Fortes précipitations  Vent > 20 kt
SIGMETs :   Divers  Orages  Givrage  Turbulence  Onde Orograph.  Cendres Volcan.






- Altitude de l'aérodrome : 102 ft
- Code IATA : CNG


LFBG - Cognac

DERNIER METAR :
  • 172130Z AUTO 24003KT 9999 BKN036 BKN044 07/05 Q1031

METARs EXPIRÉS :
  • 172100Z AUTO 24005KT 9999 SCT039 07/05 Q1031
  • 172030Z AUTO 24005KT 9999 FEW036/// SCT044/// ///TCU 07/05 Q1030
  • 172000Z AUTO 23006KT 9999 FEW035 08/06 Q1030
  • 171930Z AUTO 24006KT CAVOK 09/06 Q1030
  • 171900Z AUTO 25008KT 9999 FEW042/// BKN066/// ///TCU 09/06 Q1029

TAF TAF LFBG
Valide du 17 à 15h jusqu'au 18 à 15h UTC


171400Z 1715/1815 26015KT 9999 BKN040
TEMPO 1715/1719 26015G25KT 4000 -SHRA BKN030TCU
PROB30 1812/1815 4000 -SHRA BKN015TCU



MET'MAP, la Météo Aéronautique d'un coup d'oeil ! - Copyright ORBIFLY Décembre 2007 - Disclaimer

ORBIFLY MET'MAP TEAM :

Programmation & Développement : Alexandra Zaïnal
Sur une idée originale de : Baudouin d'Aumeries
Assistance à la programmation : Marc-Olivier Méhu
Soutien technique & logistique : Manuel Goepfert

Contact : metmap@orbifly.com




SOURCES & CREDITS :

   NOAA